sensor_id;sensor_type;location;lat;lon;timestamp;P1;durP1;ratioP1;P2;durP2;ratioP2
71959;SDS011;59832;51.146;14.024;2024-02-21T00:00:42;12.93;;;3.22;;
71959;SDS011;59832;51.146;14.024;2024-02-21T00:03:09;11.32;;;3.30;;
71959;SDS011;59832;51.146;14.024;2024-02-21T00:05:35;9.43;;;3.28;;
71959;SDS011;59832;51.146;14.024;2024-02-21T00:08:02;10.50;;;3.35;;
71959;SDS011;59832;51.146;14.024;2024-02-21T00:10:29;14.10;;;3.20;;
71959;SDS011;59832;51.146;14.024;2024-02-21T00:12:58;17.52;;;3.60;;
71959;SDS011;59832;51.146;14.024;2024-02-21T00:15:25;14.93;;;3.78;;
71959;SDS011;59832;51.146;14.024;2024-02-21T00:17:52;11.65;;;3.38;;
71959;SDS011;59832;51.146;14.024;2024-02-21T00:20:19;15.85;;;3.38;;
71959;SDS011;59832;51.146;14.024;2024-02-21T00:22:46;13.18;;;3.38;;
71959;SDS011;59832;51.146;14.024;2024-02-21T00:25:13;10.47;;;2.97;;
71959;SDS011;59832;51.146;14.024;2024-02-21T00:27:39;17.95;;;3.33;;
71959;SDS011;59832;51.146;14.024;2024-02-21T00:30:06;12.07;;;3.58;;
71959;SDS011;59832;51.146;14.024;2024-02-21T00:32:32;19.80;;;4.10;;
71959;SDS011;59832;51.146;14.024;2024-02-21T00:35:00;14.02;;;3.22;;
71959;SDS011;59832;51.146;14.024;2024-02-21T00:37:28;12.63;;;3.17;;
71959;SDS011;59832;51.146;14.024;2024-02-21T00:39:55;19.00;;;3.75;;
71959;SDS011;59832;51.146;14.024;2024-02-21T00:42:21;15.63;;;3.45;;
71959;SDS011;59832;51.146;14.024;2024-02-21T00:44:48;14.65;;;3.22;;
71959;SDS011;59832;51.146;14.024;2024-02-21T00:47:14;15.80;;;3.45;;
71959;SDS011;59832;51.146;14.024;2024-02-21T00:49:41;15.82;;;3.63;;
71959;SDS011;59832;51.146;14.024;2024-02-21T00:52:07;14.60;;;3.22;;
71959;SDS011;59832;51.146;14.024;2024-02-21T00:54:34;11.10;;;3.10;;
71959;SDS011;59832;51.146;14.024;2024-02-21T00:57:15;12.70;;;3.80;;
71959;SDS011;59832;51.146;14.024;2024-02-21T00:59:42;17.00;;;3.40;;
71959;SDS011;59832;51.146;14.024;2024-02-21T01:02:08;17.38;;;3.58;;
71959;SDS011;59832;51.146;14.024;2024-02-21T01:04:35;17.80;;;3.67;;
71959;SDS011;59832;51.146;14.024;2024-02-21T01:07:03;13.02;;;3.47;;
71959;SDS011;59832;51.146;14.024;2024-02-21T01:09:29;15.17;;;3.77;;
71959;SDS011;59832;51.146;14.024;2024-02-21T01:11:56;18.58;;;3.33;;
71959;SDS011;59832;51.146;14.024;2024-02-21T01:14:22;18.42;;;3.55;;
71959;SDS011;59832;51.146;14.024;2024-02-21T01:16:49;21.13;;;3.83;;
71959;SDS011;59832;51.146;14.024;2024-02-21T01:19:16;12.13;;;3.28;;
71959;SDS011;59832;51.146;14.024;2024-02-21T01:21:43;12.27;;;3.00;;
71959;SDS011;59832;51.146;14.024;2024-02-21T01:24:10;14.98;;;3.10;;
71959;SDS011;59832;51.146;14.024;2024-02-21T01:26:36;17.33;;;3.33;;
71959;SDS011;59832;51.146;14.024;2024-02-21T01:29:02;14.85;;;3.28;;
71959;SDS011;59832;51.146;14.024;2024-02-21T01:31:29;10.45;;;3.13;;
71959;SDS011;59832;51.146;14.024;2024-02-21T01:33:56;15.87;;;3.13;;
71959;SDS011;59832;51.146;14.024;2024-02-21T01:36:22;20.50;;;3.63;;
71959;SDS011;59832;51.146;14.024;2024-02-21T01:38:49;12.98;;;3.10;;
71959;SDS011;59832;51.146;14.024;2024-02-21T01:41:16;12.00;;;3.03;;
71959;SDS011;59832;51.146;14.024;2024-02-21T01:43:42;12.30;;;3.30;;
71959;SDS011;59832;51.146;14.024;2024-02-21T01:46:09;17.15;;;3.80;;
71959;SDS011;59832;51.146;14.024;2024-02-21T01:48:35;13.90;;;3.13;;
71959;SDS011;59832;51.146;14.024;2024-02-21T01:51:02;17.03;;;3.60;;
71959;SDS011;59832;51.146;14.024;2024-02-21T01:53:31;14.77;;;3.20;;
71959;SDS011;59832;51.146;14.024;2024-02-21T01:56:00;17.50;;;3.10;;
71959;SDS011;59832;51.146;14.024;2024-02-21T02:00:55;12.30;;;3.13;;
71959;SDS011;59832;51.146;14.024;2024-02-21T02:05:49;16.05;;;3.30;;
71959;SDS011;59832;51.146;14.024;2024-02-21T02:08:16;15.00;;;3.60;;
71959;SDS011;59832;51.146;14.024;2024-02-21T02:10:44;11.65;;;3.03;;
71959;SDS011;59832;51.146;14.024;2024-02-21T02:13:12;11.05;;;3.03;;
71959;SDS011;59832;51.146;14.024;2024-02-21T02:15:43;15.50;;;3.22;;
71959;SDS011;59832;51.146;14.024;2024-02-21T02:18:11;14.02;;;3.10;;
71959;SDS011;59832;51.146;14.024;2024-02-21T02:20:39;15.23;;;3.40;;
71959;SDS011;59832;51.146;14.024;2024-02-21T02:23:12;12.00;;;2.85;;
71959;SDS011;59832;51.146;14.024;2024-02-21T02:25:53;11.23;;;3.00;;
71959;SDS011;59832;51.146;14.024;2024-02-21T02:28:20;14.68;;;2.67;;
71959;SDS011;59832;51.146;14.024;2024-02-21T02:30:47;15.25;;;3.40;;
71959;SDS011;59832;51.146;14.024;2024-02-21T02:33:14;11.95;;;2.88;;
71959;SDS011;59832;51.146;14.024;2024-02-21T02:35:43;9.32;;;2.92;;
71959;SDS011;59832;51.146;14.024;2024-02-21T02:38:10;17.17;;;3.20;;
71959;SDS011;59832;51.146;14.024;2024-02-21T02:40:38;13.40;;;2.88;;
71959;SDS011;59832;51.146;14.024;2024-02-21T02:43:06;16.10;;;3.38;;
71959;SDS011;59832;51.146;14.024;2024-02-21T02:45:33;16.75;;;3.30;;
71959;SDS011;59832;51.146;14.024;2024-02-21T02:47:59;11.93;;;2.90;;
71959;SDS011;59832;51.146;14.024;2024-02-21T02:50:26;12.25;;;3.00;;
71959;SDS011;59832;51.146;14.024;2024-02-21T02:52:53;11.43;;;2.92;;
71959;SDS011;59832;51.146;14.024;2024-02-21T02:55:21;10.02;;;3.03;;
71959;SDS011;59832;51.146;14.024;2024-02-21T02:57:47;12.67;;;2.90;;
71959;SDS011;59832;51.146;14.024;2024-02-21T03:00:14;16.73;;;3.53;;
71959;SDS011;59832;51.146;14.024;2024-02-21T03:02:41;12.13;;;2.80;;
71959;SDS011;59832;51.146;14.024;2024-02-21T03:05:13;19.60;;;3.53;;
71959;SDS011;59832;51.146;14.024;2024-02-21T03:07:43;10.40;;;2.95;;
71959;SDS011;59832;51.146;14.024;2024-02-21T03:10:10;11.45;;;3.20;;
71959;SDS011;59832;51.146;14.024;2024-02-21T03:12:38;13.32;;;3.17;;
71959;SDS011;59832;51.146;14.024;2024-02-21T03:15:04;13.27;;;3.20;;
71959;SDS011;59832;51.146;14.024;2024-02-21T03:17:32;12.57;;;3.53;;
71959;SDS011;59832;51.146;14.024;2024-02-21T03:20:01;13.40;;;3.05;;
71959;SDS011;59832;51.146;14.024;2024-02-21T03:22:31;17.40;;;3.33;;
71959;SDS011;59832;51.146;14.024;2024-02-21T03:27:25;11.97;;;3.03;;
71959;SDS011;59832;51.146;14.024;2024-02-21T03:29:52;14.07;;;3.25;;
71959;SDS011;59832;51.146;14.024;2024-02-21T03:32:18;11.17;;;3.30;;
71959;SDS011;59832;51.146;14.024;2024-02-21T03:34:45;10.25;;;3.17;;
71959;SDS011;59832;51.146;14.024;2024-02-21T03:37:11;13.73;;;3.30;;
71959;SDS011;59832;51.146;14.024;2024-02-21T03:39:40;12.90;;;3.25;;
71959;SDS011;59832;51.146;14.024;2024-02-21T03:42:07;21.60;;;3.58;;
71959;SDS011;59832;51.146;14.024;2024-02-21T03:44:33;13.33;;;3.33;;
71959;SDS011;59832;51.146;14.024;2024-02-21T03:47:00;13.57;;;3.35;;
71959;SDS011;59832;51.146;14.024;2024-02-21T03:49:27;12.98;;;3.00;;
71959;SDS011;59832;51.146;14.024;2024-02-21T03:51:53;21.90;;;3.57;;
71959;SDS011;59832;51.146;14.024;2024-02-21T03:54:20;12.70;;;3.25;;
71959;SDS011;59832;51.146;14.024;2024-02-21T03:56:46;15.98;;;3.25;;
71959;SDS011;59832;51.146;14.024;2024-02-21T03:59:16;19.75;;;3.30;;
71959;SDS011;59832;51.146;14.024;2024-02-21T04:01:42;16.15;;;3.45;;
71959;SDS011;59832;51.146;14.024;2024-02-21T04:04:09;13.75;;;3.58;;
71959;SDS011;59832;51.146;14.024;2024-02-21T04:06:36;13.45;;;3.42;;
71959;SDS011;59832;51.146;14.024;2024-02-21T04:09:03;17.25;;;3.40;;
71959;SDS011;59832;51.146;14.024;2024-02-21T04:11:29;17.60;;;3.57;;
71959;SDS011;59832;51.146;14.024;2024-02-21T04:13:56;9.90;;;3.50;;
71959;SDS011;59832;51.146;14.024;2024-02-21T04:16:23;12.75;;;3.50;;
71959;SDS011;59832;51.146;14.024;2024-02-21T04:18:49;11.43;;;3.22;;
71959;SDS011;59832;51.146;14.024;2024-02-21T04:21:16;15.38;;;3.63;;
71959;SDS011;59832;51.146;14.024;2024-02-21T04:23:43;10.30;;;3.33;;
71959;SDS011;59832;51.146;14.024;2024-02-21T04:26:09;12.85;;;3.33;;
71959;SDS011;59832;51.146;14.024;2024-02-21T04:28:35;15.93;;;3.33;;
71959;SDS011;59832;51.146;14.024;2024-02-21T04:31:02;11.73;;;3.75;;
71959;SDS011;59832;51.146;14.024;2024-02-21T04:33:28;13.05;;;3.33;;
71959;SDS011;59832;51.146;14.024;2024-02-21T04:35:55;11.40;;;3.40;;
71959;SDS011;59832;51.146;14.024;2024-02-21T04:38:21;12.82;;;3.40;;
71959;SDS011;59832;51.146;14.024;2024-02-21T04:40:48;13.07;;;3.50;;
71959;SDS011;59832;51.146;14.024;2024-02-21T04:43:15;13.15;;;4.07;;
71959;SDS011;59832;51.146;14.024;2024-02-21T04:45:41;11.23;;;3.15;;
71959;SDS011;59832;51.146;14.024;2024-02-21T04:48:08;12.88;;;3.55;;
71959;SDS011;59832;51.146;14.024;2024-02-21T04:50:34;14.03;;;3.53;;
71959;SDS011;59832;51.146;14.024;2024-02-21T04:53:01;15.73;;;3.67;;
71959;SDS011;59832;51.146;14.024;2024-02-21T04:55:27;14.07;;;4.22;;
71959;SDS011;59832;51.146;14.024;2024-02-21T04:57:54;14.90;;;3.45;;
71959;SDS011;59832;51.146;14.024;2024-02-21T05:00:20;12.13;;;3.50;;
71959;SDS011;59832;51.146;14.024;2024-02-21T05:02:47;11.55;;;3.70;;
71959;SDS011;59832;51.146;14.024;2024-02-21T05:05:13;14.00;;;4.00;;
71959;SDS011;59832;51.146;14.024;2024-02-21T05:07:41;13.32;;;3.90;;
71959;SDS011;59832;51.146;14.024;2024-02-21T05:10:08;10.35;;;3.45;;
71959;SDS011;59832;51.146;14.024;2024-02-21T05:15:02;14.32;;;3.70;;
71959;SDS011;59832;51.146;14.024;2024-02-21T05:17:29;13.38;;;3.40;;
71959;SDS011;59832;51.146;14.024;2024-02-21T05:19:56;12.87;;;3.20;;
71959;SDS011;59832;51.146;14.024;2024-02-21T05:22:22;14.65;;;3.45;;
71959;SDS011;59832;51.146;14.024;2024-02-21T05:24:49;12.32;;;3.30;;
71959;SDS011;59832;51.146;14.024;2024-02-21T05:27:15;12.60;;;3.35;;
71959;SDS011;59832;51.146;14.024;2024-02-21T05:29:42;15.40;;;3.55;;
71959;SDS011;59832;51.146;14.024;2024-02-21T05:32:08;11.30;;;3.55;;
71959;SDS011;59832;51.146;14.024;2024-02-21T05:34:35;12.85;;;3.45;;
71959;SDS011;59832;51.146;14.024;2024-02-21T05:37:01;9.17;;;3.70;;
71959;SDS011;59832;51.146;14.024;2024-02-21T05:39:28;14.23;;;3.70;;
71959;SDS011;59832;51.146;14.024;2024-02-21T05:41:55;14.38;;;3.50;;
71959;SDS011;59832;51.146;14.024;2024-02-21T05:44:22;12.05;;;3.92;;
71959;SDS011;59832;51.146;14.024;2024-02-21T05:46:48;12.37;;;3.90;;
71959;SDS011;59832;51.146;14.024;2024-02-21T05:49:15;17.58;;;4.18;;
71959;SDS011;59832;51.146;14.024;2024-02-21T05:51:41;11.95;;;4.28;;
71959;SDS011;59832;51.146;14.024;2024-02-21T05:54:08;13.93;;;4.05;;
71959;SDS011;59832;51.146;14.024;2024-02-21T05:56:34;15.55;;;3.88;;
71959;SDS011;59832;51.146;14.024;2024-02-21T05:59:01;14.65;;;3.58;;
71959;SDS011;59832;51.146;14.024;2024-02-21T06:01:27;14.07;;;4.07;;
71959;SDS011;59832;51.146;14.024;2024-02-21T06:03:54;13.82;;;3.90;;
71959;SDS011;59832;51.146;14.024;2024-02-21T06:06:21;14.10;;;3.70;;
71959;SDS011;59832;51.146;14.024;2024-02-21T06:08:51;10.57;;;3.65;;
71959;SDS011;59832;51.146;14.024;2024-02-21T06:11:17;12.85;;;3.72;;
71959;SDS011;59832;51.146;14.024;2024-02-21T06:13:44;14.87;;;3.97;;
71959;SDS011;59832;51.146;14.024;2024-02-21T06:16:10;11.75;;;3.20;;
71959;SDS011;59832;51.146;14.024;2024-02-21T06:18:37;11.05;;;4.18;;
71959;SDS011;59832;51.146;14.024;2024-02-21T06:21:04;14.82;;;4.05;;
71959;SDS011;59832;51.146;14.024;2024-02-21T06:23:31;15.40;;;4.20;;
71959;SDS011;59832;51.146;14.024;2024-02-21T06:25:57;13.45;;;3.60;;
71959;SDS011;59832;51.146;14.024;2024-02-21T06:28:24;12.68;;;3.80;;
71959;SDS011;59832;51.146;14.024;2024-02-21T06:30:51;15.43;;;4.10;;
71959;SDS011;59832;51.146;14.024;2024-02-21T06:33:17;15.13;;;4.18;;
71959;SDS011;59832;51.146;14.024;2024-02-21T06:35:44;10.87;;;3.90;;
71959;SDS011;59832;51.146;14.024;2024-02-21T06:38:13;14.23;;;3.75;;
71959;SDS011;59832;51.146;14.024;2024-02-21T06:40:42;16.27;;;4.10;;
71959;SDS011;59832;51.146;14.024;2024-02-21T06:43:08;11.30;;;3.80;;
71959;SDS011;59832;51.146;14.024;2024-02-21T06:45:35;14.93;;;3.80;;
71959;SDS011;59832;51.146;14.024;2024-02-21T06:48:01;13.60;;;3.95;;
71959;SDS011;59832;51.146;14.024;2024-02-21T06:50:28;10.95;;;3.90;;
71959;SDS011;59832;51.146;14.024;2024-02-21T06:52:55;13.73;;;4.25;;
71959;SDS011;59832;51.146;14.024;2024-02-21T06:55:21;18.90;;;4.53;;
71959;SDS011;59832;51.146;14.024;2024-02-21T06:57:48;10.77;;;3.97;;
71959;SDS011;59832;51.146;14.024;2024-02-21T07:00:14;12.55;;;3.95;;
71959;SDS011;59832;51.146;14.024;2024-02-21T07:02:41;12.68;;;4.05;;
71959;SDS011;59832;51.146;14.024;2024-02-21T07:05:08;17.45;;;4.10;;
71959;SDS011;59832;51.146;14.024;2024-02-21T07:07:35;13.20;;;4.25;;
71959;SDS011;59832;51.146;14.024;2024-02-21T07:10:02;13.20;;;4.10;;
71959;SDS011;59832;51.146;14.024;2024-02-21T07:12:28;15.15;;;3.78;;
71959;SDS011;59832;51.146;14.024;2024-02-21T07:14:54;16.98;;;4.50;;
71959;SDS011;59832;51.146;14.024;2024-02-21T07:17:21;14.30;;;4.28;;
71959;SDS011;59832;51.146;14.024;2024-02-21T07:19:48;10.85;;;4.32;;
71959;SDS011;59832;51.146;14.024;2024-02-21T07:22:14;14.13;;;4.60;;
71959;SDS011;59832;51.146;14.024;2024-02-21T07:24:41;12.63;;;4.32;;
71959;SDS011;59832;51.146;14.024;2024-02-21T07:27:07;15.40;;;4.32;;
71959;SDS011;59832;51.146;14.024;2024-02-21T07:29:33;13.90;;;4.38;;
71959;SDS011;59832;51.146;14.024;2024-02-21T07:32:00;14.50;;;4.05;;
71959;SDS011;59832;51.146;14.024;2024-02-21T07:34:27;14.30;;;4.03;;
71959;SDS011;59832;51.146;14.024;2024-02-21T07:36:53;17.05;;;4.13;;
71959;SDS011;59832;51.146;14.024;2024-02-21T07:39:20;11.57;;;3.75;;
71959;SDS011;59832;51.146;14.024;2024-02-21T07:41:46;14.50;;;4.57;;
71959;SDS011;59832;51.146;14.024;2024-02-21T07:44:14;14.65;;;4.63;;
71959;SDS011;59832;51.146;14.024;2024-02-21T07:46:41;10.82;;;4.22;;
71959;SDS011;59832;51.146;14.024;2024-02-21T07:49:07;11.10;;;4.00;;
71959;SDS011;59832;51.146;14.024;2024-02-21T07:51:34;13.80;;;3.80;;
71959;SDS011;59832;51.146;14.024;2024-02-21T07:56:30;16.98;;;4.20;;
71959;SDS011;59832;51.146;14.024;2024-02-21T07:58:57;12.60;;;4.40;;
71959;SDS011;59832;51.146;14.024;2024-02-21T08:01:24;14.10;;;3.90;;
71959;SDS011;59832;51.146;14.024;2024-02-21T08:03:50;14.10;;;4.28;;
71959;SDS011;59832;51.146;14.024;2024-02-21T08:06:17;10.97;;;4.23;;
71959;SDS011;59832;51.146;14.024;2024-02-21T08:08:43;10.93;;;4.23;;
71959;SDS011;59832;51.146;14.024;2024-02-21T08:11:10;14.20;;;5.10;;
71959;SDS011;59832;51.146;14.024;2024-02-21T08:13:36;16.13;;;4.63;;
71959;SDS011;59832;51.146;14.024;2024-02-21T08:16:03;13.98;;;4.20;;
71959;SDS011;59832;51.146;14.024;2024-02-21T08:18:30;17.27;;;7.32;;
71959;SDS011;59832;51.146;14.024;2024-02-21T08:20:56;19.15;;;7.68;;
71959;SDS011;59832;51.146;14.024;2024-02-21T08:23:23;14.18;;;5.57;;
71959;SDS011;59832;51.146;14.024;2024-02-21T08:25:50;12.57;;;5.35;;
71959;SDS011;59832;51.146;14.024;2024-02-21T08:28:17;18.93;;;5.70;;
71959;SDS011;59832;51.146;14.024;2024-02-21T08:30:43;17.25;;;5.93;;
71959;SDS011;59832;51.146;14.024;2024-02-21T08:33:15;16.38;;;4.57;;
71959;SDS011;59832;51.146;14.024;2024-02-21T08:35:43;14.77;;;4.85;;
71959;SDS011;59832;51.146;14.024;2024-02-21T08:38:09;10.07;;;4.28;;
71959;SDS011;59832;51.146;14.024;2024-02-21T08:40:36;10.68;;;3.67;;
71959;SDS011;59832;51.146;14.024;2024-02-21T08:43:03;12.63;;;3.90;;
71959;SDS011;59832;51.146;14.024;2024-02-21T08:45:29;15.47;;;4.40;;
71959;SDS011;59832;51.146;14.024;2024-02-21T08:47:57;16.08;;;4.03;;
71959;SDS011;59832;51.146;14.024;2024-02-21T08:50:24;9.07;;;3.72;;
71959;SDS011;59832;51.146;14.024;2024-02-21T08:52:54;16.35;;;4.15;;
71959;SDS011;59832;51.146;14.024;2024-02-21T08:55:22;9.75;;;3.75;;
71959;SDS011;59832;51.146;14.024;2024-02-21T08:57:48;19.30;;;5.88;;
71959;SDS011;59832;51.146;14.024;2024-02-21T09:00:15;12.45;;;5.82;;
71959;SDS011;59832;51.146;14.024;2024-02-21T09:02:42;18.60;;;5.80;;
71959;SDS011;59832;51.146;14.024;2024-02-21T09:05:09;18.00;;;6.97;;
71959;SDS011;59832;51.146;14.024;2024-02-21T09:07:36;19.90;;;7.30;;
71959;SDS011;59832;51.146;14.024;2024-02-21T09:10:03;13.25;;;5.93;;
71959;SDS011;59832;51.146;14.024;2024-02-21T09:12:30;15.02;;;5.15;;
71959;SDS011;59832;51.146;14.024;2024-02-21T09:14:56;9.00;;;4.35;;
71959;SDS011;59832;51.146;14.024;2024-02-21T09:17:23;11.25;;;4.65;;
71959;SDS011;59832;51.146;14.024;2024-02-21T09:19:51;12.50;;;4.65;;
71959;SDS011;59832;51.146;14.024;2024-02-21T09:22:18;9.85;;;4.78;;
71959;SDS011;59832;51.146;14.024;2024-02-21T09:24:44;15.70;;;4.63;;
71959;SDS011;59832;51.146;14.024;2024-02-21T09:27:11;16.07;;;4.63;;
71959;SDS011;59832;51.146;14.024;2024-02-21T09:29:38;13.57;;;5.88;;
71959;SDS011;59832;51.146;14.024;2024-02-21T09:32:06;12.75;;;4.80;;
71959;SDS011;59832;51.146;14.024;2024-02-21T09:34:33;13.50;;;5.47;;
71959;SDS011;59832;51.146;14.024;2024-02-21T09:36:59;11.82;;;4.90;;
71959;SDS011;59832;51.146;14.024;2024-02-21T09:39:26;15.32;;;4.90;;
71959;SDS011;59832;51.146;14.024;2024-02-21T09:41:59;16.60;;;5.85;;
71959;SDS011;59832;51.146;14.024;2024-02-21T09:44:36;11.90;;;4.82;;
71959;SDS011;59832;51.146;14.024;2024-02-21T09:47:09;14.35;;;4.28;;
71959;SDS011;59832;51.146;14.024;2024-02-21T09:49:40;12.98;;;4.65;;
71959;SDS011;59832;51.146;14.024;2024-02-21T09:52:08;15.85;;;4.13;;
71959;SDS011;59832;51.146;14.024;2024-02-21T09:57:03;11.77;;;3.97;;
71959;SDS011;59832;51.146;14.024;2024-02-21T09:59:30;11.40;;;3.97;;
71959;SDS011;59832;51.146;14.024;2024-02-21T10:01:58;12.13;;;4.38;;
71959;SDS011;59832;51.146;14.024;2024-02-21T10:04:28;12.15;;;4.30;;
71959;SDS011;59832;51.146;14.024;2024-02-21T10:06:55;9.77;;;4.05;;
71959;SDS011;59832;51.146;14.024;2024-02-21T10:09:23;13.10;;;3.85;;
71959;SDS011;59832;51.146;14.024;2024-02-21T10:11:53;11.90;;;4.07;;
71959;SDS011;59832;51.146;14.024;2024-02-21T10:14:21;11.15;;;4.03;;
71959;SDS011;59832;51.146;14.024;2024-02-21T10:16:47;10.43;;;4.10;;
71959;SDS011;59832;51.146;14.024;2024-02-21T10:19:16;12.50;;;4.07;;
71959;SDS011;59832;51.146;14.024;2024-02-21T10:24:33;11.57;;;4.32;;
71959;SDS011;59832;51.146;14.024;2024-02-21T10:27:01;10.05;;;3.88;;
71959;SDS011;59832;51.146;14.024;2024-02-21T10:29:34;13.27;;;4.43;;
71959;SDS011;59832;51.146;14.024;2024-02-21T10:32:08;13.50;;;4.22;;
71959;SDS011;59832;51.146;14.024;2024-02-21T10:34:36;13.20;;;4.03;;
71959;SDS011;59832;51.146;14.024;2024-02-21T10:39:40;7.72;;;3.67;;
71959;SDS011;59832;51.146;14.024;2024-02-21T10:42:10;8.48;;;4.15;;
71959;SDS011;59832;51.146;14.024;2024-02-21T10:44:39;13.30;;;4.35;;
71959;SDS011;59832;51.146;14.024;2024-02-21T10:47:08;16.58;;;5.13;;
71959;SDS011;59832;51.146;14.024;2024-02-21T10:49:39;12.38;;;4.03;;
71959;SDS011;59832;51.146;14.024;2024-02-21T10:54:43;9.18;;;4.10;;
71959;SDS011;59832;51.146;14.024;2024-02-21T10:57:12;11.25;;;5.20;;
71959;SDS011;59832;51.146;14.024;2024-02-21T11:02:07;10.27;;;4.00;;
71959;SDS011;59832;51.146;14.024;2024-02-21T11:04:34;8.95;;;3.60;;
71959;SDS011;59832;51.146;14.024;2024-02-21T11:07:05;9.32;;;3.88;;
71959;SDS011;59832;51.146;14.024;2024-02-21T11:09:36;16.33;;;4.15;;
71959;SDS011;59832;51.146;14.024;2024-02-21T11:12:04;17.27;;;4.47;;
71959;SDS011;59832;51.146;14.024;2024-02-21T11:14:32;9.93;;;3.95;;
71959;SDS011;59832;51.146;14.024;2024-02-21T11:16:59;10.90;;;3.70;;
71959;SDS011;59832;51.146;14.024;2024-02-21T11:19:26;7.05;;;3.63;;
71959;SDS011;59832;51.146;14.024;2024-02-21T11:21:55;9.50;;;4.03;;
71959;SDS011;59832;51.146;14.024;2024-02-21T11:24:28;6.30;;;3.60;;
71959;SDS011;59832;51.146;14.024;2024-02-21T11:26:56;14.57;;;3.60;;
71959;SDS011;59832;51.146;14.024;2024-02-21T11:29:44;10.27;;;3.30;;
71959;SDS011;59832;51.146;14.024;2024-02-21T11:32:11;7.95;;;3.47;;
71959;SDS011;59832;51.146;14.024;2024-02-21T11:34:40;7.43;;;3.30;;
71959;SDS011;59832;51.146;14.024;2024-02-21T11:37:14;8.55;;;3.30;;
71959;SDS011;59832;51.146;14.024;2024-02-21T11:39:43;7.15;;;2.83;;
71959;SDS011;59832;51.146;14.024;2024-02-21T11:42:10;6.18;;;3.10;;
71959;SDS011;59832;51.146;14.024;2024-02-21T11:44:38;7.28;;;3.40;;
71959;SDS011;59832;51.146;14.024;2024-02-21T11:52:05;7.60;;;3.15;;
71959;SDS011;59832;51.146;14.024;2024-02-21T11:54:31;6.60;;;3.13;;
71959;SDS011;59832;51.146;14.024;2024-02-21T11:56:58;4.43;;;2.85;;
71959;SDS011;59832;51.146;14.024;2024-02-21T11:59:24;7.90;;;3.38;;
71959;SDS011;59832;51.146;14.024;2024-02-21T12:01:52;6.93;;;2.70;;
71959;SDS011;59832;51.146;14.024;2024-02-21T12:04:19;6.70;;;3.05;;
71959;SDS011;59832;51.146;14.024;2024-02-21T12:06:46;10.10;;;3.65;;
71959;SDS011;59832;51.146;14.024;2024-02-21T12:09:16;9.60;;;3.40;;
71959;SDS011;59832;51.146;14.024;2024-02-21T12:11:43;10.00;;;3.45;;
71959;SDS011;59832;51.146;14.024;2024-02-21T12:16:37;9.25;;;3.03;;
71959;SDS011;59832;51.146;14.024;2024-02-21T12:19:03;10.13;;;2.93;;
71959;SDS011;59832;51.146;14.024;2024-02-21T12:21:31;8.98;;;3.60;;
71959;SDS011;59832;51.146;14.024;2024-02-21T12:24:10;7.70;;;3.13;;
71959;SDS011;59832;51.146;14.024;2024-02-21T12:26:40;9.63;;;3.03;;
71959;SDS011;59832;51.146;14.024;2024-02-21T12:29:07;5.47;;;2.83;;
71959;SDS011;59832;51.146;14.024;2024-02-21T12:31:38;6.65;;;2.80;;
71959;SDS011;59832;51.146;14.024;2024-02-21T12:34:05;4.82;;;2.90;;
71959;SDS011;59832;51.146;14.024;2024-02-21T12:36:32;7.55;;;2.90;;
71959;SDS011;59832;51.146;14.024;2024-02-21T12:38:59;8.32;;;3.30;;
71959;SDS011;59832;51.146;14.024;2024-02-21T12:41:27;7.00;;;3.03;;
71959;SDS011;59832;51.146;14.024;2024-02-21T12:43:56;6.60;;;2.80;;
71959;SDS011;59832;51.146;14.024;2024-02-21T12:46:22;5.33;;;2.77;;
71959;SDS011;59832;51.146;14.024;2024-02-21T12:48:50;6.00;;;3.08;;
71959;SDS011;59832;51.146;14.024;2024-02-21T12:51:16;8.05;;;3.00;;
71959;SDS011;59832;51.146;14.024;2024-02-21T12:53:47;8.90;;;2.67;;
71959;SDS011;59832;51.146;14.024;2024-02-21T12:56:16;7.38;;;2.83;;
71959;SDS011;59832;51.146;14.024;2024-02-21T12:58:42;6.18;;;2.85;;
71959;SDS011;59832;51.146;14.024;2024-02-21T13:01:09;5.88;;;2.85;;
71959;SDS011;59832;51.146;14.024;2024-02-21T13:03:35;6.38;;;2.85;;
71959;SDS011;59832;51.146;14.024;2024-02-21T13:06:02;11.55;;;3.38;;
71959;SDS011;59832;51.146;14.024;2024-02-21T13:08:29;4.95;;;2.40;;
71959;SDS011;59832;51.146;14.024;2024-02-21T13:10:55;6.00;;;2.80;;
71959;SDS011;59832;51.146;14.024;2024-02-21T13:13:22;5.95;;;2.75;;
71959;SDS011;59832;51.146;14.024;2024-02-21T13:15:49;11.87;;;3.20;;
71959;SDS011;59832;51.146;14.024;2024-02-21T13:18:15;6.47;;;2.67;;
71959;SDS011;59832;51.146;14.024;2024-02-21T13:20:42;5.30;;;2.40;;
71959;SDS011;59832;51.146;14.024;2024-02-21T13:23:08;5.65;;;2.58;;
71959;SDS011;59832;51.146;14.024;2024-02-21T13:25:35;7.10;;;2.40;;
71959;SDS011;59832;51.146;14.024;2024-02-21T13:28:01;4.82;;;2.10;;
71959;SDS011;59832;51.146;14.024;2024-02-21T13:30:29;5.50;;;2.58;;
71959;SDS011;59832;51.146;14.024;2024-02-21T13:32:55;7.30;;;2.60;;
71959;SDS011;59832;51.146;14.024;2024-02-21T13:35:22;10.95;;;2.90;;
71959;SDS011;59832;51.146;14.024;2024-02-21T13:37:48;6.35;;;2.40;;
71959;SDS011;59832;51.146;14.024;2024-02-21T13:40:16;6.95;;;2.85;;
71959;SDS011;59832;51.146;14.024;2024-02-21T13:42:42;6.60;;;3.17;;
71959;SDS011;59832;51.146;14.024;2024-02-21T13:45:09;9.30;;;3.20;;
71959;SDS011;59832;51.146;14.024;2024-02-21T13:47:36;6.22;;;3.20;;
71959;SDS011;59832;51.146;14.024;2024-02-21T13:50:05;5.97;;;2.67;;
71959;SDS011;59832;51.146;14.024;2024-02-21T13:52:37;8.40;;;2.88;;
71959;SDS011;59832;51.146;14.024;2024-02-21T13:55:04;7.65;;;2.50;;
71959;SDS011;59832;51.146;14.024;2024-02-21T13:57:30;5.70;;;2.53;;
71959;SDS011;59832;51.146;14.024;2024-02-21T13:59:57;7.07;;;2.63;;
71959;SDS011;59832;51.146;14.024;2024-02-21T14:02:23;5.80;;;2.60;;
71959;SDS011;59832;51.146;14.024;2024-02-21T14:04:50;5.67;;;2.63;;
71959;SDS011;59832;51.146;14.024;2024-02-21T14:07:17;6.88;;;2.83;;
71959;SDS011;59832;51.146;14.024;2024-02-21T14:09:43;6.47;;;2.90;;
71959;SDS011;59832;51.146;14.024;2024-02-21T14:12:10;5.75;;;2.72;;
71959;SDS011;59832;51.146;14.024;2024-02-21T14:14:36;4.63;;;2.70;;
71959;SDS011;59832;51.146;14.024;2024-02-21T14:17:05;7.25;;;2.63;;
71959;SDS011;59832;51.146;14.024;2024-02-21T14:19:32;7.17;;;2.40;;
71959;SDS011;59832;51.146;14.024;2024-02-21T14:21:58;4.67;;;2.53;;
71959;SDS011;59832;51.146;14.024;2024-02-21T14:24:25;8.30;;;2.97;;
71959;SDS011;59832;51.146;14.024;2024-02-21T14:26:54;8.02;;;2.88;;
71959;SDS011;59832;51.146;14.024;2024-02-21T14:29:21;12.30;;;3.20;;
71959;SDS011;59832;51.146;14.024;2024-02-21T14:31:48;7.32;;;2.92;;
71959;SDS011;59832;51.146;14.024;2024-02-21T14:34:15;6.00;;;2.70;;
71959;SDS011;59832;51.146;14.024;2024-02-21T14:36:41;8.40;;;3.28;;
71959;SDS011;59832;51.146;14.024;2024-02-21T14:39:08;8.60;;;3.25;;
71959;SDS011;59832;51.146;14.024;2024-02-21T14:41:34;8.10;;;3.10;;
71959;SDS011;59832;51.146;14.024;2024-02-21T14:44:01;7.57;;;2.70;;
71959;SDS011;59832;51.146;14.024;2024-02-21T14:46:30;6.93;;;2.75;;
71959;SDS011;59832;51.146;14.024;2024-02-21T14:48:57;10.07;;;2.88;;
71959;SDS011;59832;51.146;14.024;2024-02-21T14:51:24;8.30;;;2.80;;
71959;SDS011;59832;51.146;14.024;2024-02-21T14:53:50;5.15;;;2.63;;
71959;SDS011;59832;51.146;14.024;2024-02-21T14:56:17;7.78;;;2.78;;
71959;SDS011;59832;51.146;14.024;2024-02-21T14:58:46;7.70;;;2.90;;